Flight Track Log - Related Links

Times and Time Zones

All times are in EDT time to prevent confusion due to time zone crossing. See the UPS1122 flight status page for this flight to view local times or setup timezone preferences in your user account.

Time Position Orientation Groundspeed Altitude Reporting Facility
EDT Latitude Longitude Course Direction KTS MPH feet Rate Location/Type
Thu 06:33:43 AM 41.9436 -72.6997 314° West 135 155 1,400  Level Boston Center
Thu 06:34:19 AM 41.9686 -72.7306 317° Northwest 199 229 2,800 2,907 Climbing Boston Center
Thu 06:35:20 AM 42.0206 -72.7950 317° Northwest 250 288 6,100 3,354 Climbing Boston Center
Thu 06:36:26 AM 42.0725 -72.8736 312° West 263 303 9,900 1,934 Climbing Boston Center
Thu 06:37:21 AM 42.1303 -72.9525 315° West 322 371 10,000  Climbing Boston Center
Thu 06:37:38 AM 42.1492 -72.9778 315° West 340 391 9,900 -72 Descending Boston Center
Thu 06:38:44 AM 42.2172 -73.0764 313° West 337 388 9,900  Level Boston Center
Thu 06:39:00 AM 42.1486 -72.9847 314° West  Level FlightAware Approximate
Thu 06:39:45 AM 42.2814 -73.1642 315° West 333 383 9,900  Level Boston Center
Thu 06:40:46 AM 42.3350 -73.2517 310° West 297 342 9,900 -149 Level Boston Center
Thu 06:41:46 AM 42.3906 -73.3453 309° West 289 333 9,600 -843 Descending Boston Center
Thu 06:42:47 AM 42.4419 -73.4333 308° West 295 339 8,200 -1,377 Descending Boston Center
Thu 06:43:48 AM 42.4911 -73.5128 310° West 286 329 6,800 -1,686 Descending Boston Center
Thu 06:44:48 AM 42.5383 -73.5981 307° West 279 321 4,800 -2,033 Descending Boston Center
Thu 06:45:49 AM 42.5853 -73.6781 309° West 270 311 2,700 -1,438 Descending Boston Center
Thu 06:46:49 AM 42.6283 -73.7522 308° West 250 288 1,900 -496 Descending Boston Center
Thu 06:47:50 AM 42.6653 -73.7953 319° Northwest 158 182 1,700 -443 Descending Boston Center
Thu 06:48:51 AM 42.7006 -73.8075 346° North 119 137 1,000 -689 Descending Boston Center
Thu 06:50:00 AM 42.7333 -73.8000 North  Level FlightAware Approximate
Thu 06:57:00 AM 42.7491 -73.8020 North  Level Estimated

Login

Don't have an account? Register now (free) for customized features, flight alerts, and more!